Time;durP1;ratioP1;P1;durP2;ratioP2;P2;SDS_P1;SDS_P2;PMS_P1;PMS_P2;Temp;Humidity;BMP_temperature;BMP_pressure;BME280_temperature;BME280_humidity;BME280_pressure;Samples;Min_cycle;Max_cycle;Signal;HPM_P1;HPM_P2
2021/08/17 00:00:28;;;;;;;7.93;3.93;;;16.70;99.90;;;;;;5051974;28;21002;-65
2021/08/17 00:02:56;;;;;;;9.23;3.13;;;16.70;99.90;;;;;;5053822;28;20527;-65
2021/08/17 00:05:23;;;;;;;7.30;5.53;;;16.70;99.90;;;;;;5052836;28;20467;-64
2021/08/17 00:07:49;;;;;;;6.50;3.30;;;16.70;99.90;;;;;;5053615;28;20857;-65
2021/08/17 00:10:16;;;;;;;6.30;5.27;;;16.70;99.90;;;;;;5054211;28;20463;-65
2021/08/17 00:12:43;;;;;;;10.60;3.50;;;16.70;99.90;;;;;;5053814;28;20840;-65
2021/08/17 00:15:10;;;;;;;8.73;3.57;;;16.80;99.90;;;;;;5053924;28;20470;-64
2021/08/17 00:17:37;;;;;;;5.13;3.30;;;16.80;99.90;;;;;;5053946;28;20474;-64
2021/08/17 00:20:06;;;;;;;4.53;2.70;;;16.80;99.90;;;;;;5053683;28;20563;-65
2021/08/17 00:22:32;;;;;;;5.10;3.30;;;16.80;99.90;;;;;;5054011;28;20471;-65
2021/08/17 00:24:59;;;;;;;4.57;2.97;;;16.90;99.90;;;;;;5053092;28;20464;-64
2021/08/17 00:27:26;;;;;;;4.17;3.30;;;16.90;99.90;;;;;;5053712;28;20752;-65
2021/08/17 00:29:52;;;;;;;4.70;2.87;;;16.90;99.90;;;;;;5053146;28;20486;-65
2021/08/17 00:32:19;;;;;;;4.97;3.33;;;16.90;99.90;;;;;;5053583;28;20468;-65
2021/08/17 00:34:45;;;;;;;4.13;2.80;;;16.90;99.90;;;;;;5053340;28;20477;-65
2021/08/17 00:37:14;;;;;;;4.90;3.50;;;16.90;99.90;;;;;;5053665;28;20467;-65
2021/08/17 00:39:41;;;;;;;5.60;3.33;;;17.00;99.90;;;;;;5053267;28;20474;-65
2021/08/17 00:42:08;;;;;;;5.50;3.03;;;17.00;99.90;;;;;;5053897;28;20466;-65
2021/08/17 00:44:36;;;;;;;6.13;2.97;;;17.00;99.90;;;;;;5053274;28;20467;-60
2021/08/17 00:47:03;;;;;;;7.57;3.30;;;17.00;99.90;;;;;;5053038;28;20529;-59
2021/08/17 00:49:30;;;;;;;4.83;3.03;;;16.90;99.90;;;;;;5053273;28;20864;-58
2021/08/17 00:51:59;;;;;;;4.40;3.10;;;16.80;99.90;;;;;;5053057;28;20466;-58
2021/08/17 00:54:27;;;;;;;4.80;2.80;;;16.80;99.90;;;;;;5053497;28;21003;-57
2021/08/17 00:56:55;;;;;;;4.37;2.73;;;16.80;99.90;;;;;;5051231;28;20534;-57
2021/08/17 00:59:22;;;;;;;5.97;3.00;;;16.80;99.90;;;;;;5045962;28;20478;-59
2021/08/17 01:01:49;;;;;;;4.40;3.03;;;16.80;99.90;;;;;;5052695;28;20473;-58
2021/08/17 01:04:16;;;;;;;6.57;3.50;;;16.80;99.90;;;;;;5053476;28;20469;-58
2021/08/17 01:06:43;;;;;;;9.13;3.67;;;16.80;99.90;;;;;;5051863;28;20475;-58
2021/08/17 01:09:09;;;;;;;7.60;3.40;;;16.70;99.90;;;;;;5040083;28;20508;-59
2021/08/17 01:11:38;;;;;;;9.17;8.13;;;16.70;99.90;;;;;;5053088;28;20461;-59
2021/08/17 01:14:05;;;;;;;6.40;4.37;;;16.70;99.90;;;;;;5046079;28;20470;-59
2021/08/17 01:16:32;;;;;;;4.30;3.83;;;16.70;99.90;;;;;;5050658;28;20478;-58
2021/08/17 01:18:58;;;;;;;8.00;3.83;;;16.70;99.90;;;;;;5050789;28;20475;-59
2021/08/17 01:21:25;;;;;;;7.07;4.77;;;16.70;99.90;;;;;;5051979;28;20467;-57
2021/08/17 01:23:51;;;;;;;8.13;6.40;;;16.70;99.90;;;;;;5051953;28;20490;-58
2021/08/17 01:26:19;;;;;;;8.03;4.17;;;16.80;99.90;;;;;;5052082;28;20473;-58
2021/08/17 01:28:46;;;;;;;7.03;4.00;;;16.80;99.90;;;;;;5049892;28;20509;-59
2021/08/17 01:31:13;;;;;;;7.00;3.97;;;16.80;99.90;;;;;;5050823;28;20532;-59
2021/08/17 01:33:39;;;;;;;14.03;4.73;;;16.80;99.90;;;;;;5050981;28;20475;-59
2021/08/17 01:36:06;;;;;;;7.77;3.47;;;16.90;99.90;;;;;;5051519;28;20849;-56
2021/08/17 01:38:32;;;;;;;4.37;2.90;;;16.90;99.90;;;;;;5052738;28;20806;-60
2021/08/17 01:40:59;;;;;;;4.93;3.10;;;16.90;99.90;;;;;;5052085;28;20960;-58
2021/08/17 01:43:27;;;;;;;5.00;3.80;;;16.90;99.90;;;;;;5052324;28;20883;-60
2021/08/17 01:45:58;;;;;;;7.40;3.77;;;16.80;99.90;;;;;;5052069;28;20467;-58
2021/08/17 01:48:26;;;;;;;4.53;3.07;;;16.80;99.90;;;;;;5052428;28;20539;-59
2021/08/17 01:50:53;;;;;;;6.93;4.70;;;16.90;99.90;;;;;;5052031;28;20511;-58
2021/08/17 01:53:21;;;;;;;3.47;3.00;;;16.90;99.90;;;;;;5052642;28;20547;-58
2021/08/17 01:55:47;;;;;;;7.07;4.67;;;16.80;99.90;;;;;;5051878;28;20833;-59
2021/08/17 01:58:14;;;;;;;9.03;3.60;;;16.90;99.90;;;;;;5039652;28;20479;-60
2021/08/17 02:00:44;;;;;;;3.00;2.63;;;16.90;99.90;;;;;;5051889;28;20538;-59
2021/08/17 02:03:11;;;;;;;6.33;3.63;;;17.00;99.90;;;;;;5051890;28;21294;-58
2021/08/17 02:05:37;;;;;;;8.00;4.50;;;17.00;99.90;;;;;;5046942;28;20465;-59
2021/08/17 02:08:05;;;;;;;5.77;3.43;;;16.90;99.90;;;;;;5044252;28;20537;-59
2021/08/17 02:10:32;;;;;;;5.83;3.67;;;17.00;99.90;;;;;;5052249;28;20602;-55
2021/08/17 02:12:58;;;;;;;5.83;3.40;;;16.90;99.90;;;;;;5051536;28;20463;-58
2021/08/17 02:15:25;;;;;;;4.90;4.40;;;17.00;99.90;;;;;;5051775;28;20501;-58
2021/08/17 02:17:53;;;;;;;10.40;4.40;;;17.10;99.90;;;;;;5053963;28;20530;-57
2021/08/17 02:20:19;;;;;;;6.43;3.80;;;17.00;99.90;;;;;;5056650;28;20885;-59
2021/08/17 02:22:46;;;;;;;7.37;3.73;;;17.00;99.90;;;;;;5056624;28;20467;-59
2021/08/17 02:25:13;;;;;;;5.07;3.60;;;17.00;99.90;;;;;;5055976;28;20471;-58
2021/08/17 02:27:40;;;;;;;7.17;3.00;;;17.10;99.90;;;;;;5056536;28;20553;-59
2021/08/17 02:30:07;;;;;;;7.97;4.73;;;17.10;99.90;;;;;;5055972;28;20474;-58
2021/08/17 02:32:35;;;;;;;8.37;6.80;;;17.10;99.90;;;;;;5056544;28;20466;-59
2021/08/17 02:35:04;;;;;;;5.30;3.23;;;17.10;99.90;;;;;;5055984;28;20517;-60
2021/08/17 02:37:31;;;;;;;8.43;5.10;;;17.10;99.90;;;;;;5056223;28;20517;-60
2021/08/17 02:39:57;;;;;;;6.20;3.13;;;17.20;99.90;;;;;;5055798;28;20474;-60
2021/08/17 02:42:24;;;;;;;8.40;4.67;;;17.20;99.90;;;;;;5056373;28;20520;-59
2021/08/17 02:44:50;;;;;;;6.67;3.47;;;17.20;99.90;;;;;;5055551;28;20471;-59
2021/08/17 02:47:17;;;;;;;6.10;3.60;;;17.20;99.90;;;;;;5056214;28;20466;-58
2021/08/17 02:49:44;;;;;;;4.53;3.50;;;17.20;99.90;;;;;;5056013;28;20531;-60
2021/08/17 02:52:12;;;;;;;6.33;3.43;;;17.20;99.90;;;;;;5055654;28;20940;-60
2021/08/17 02:54:40;;;;;;;5.20;3.67;;;17.20;99.90;;;;;;5056100;28;20856;-60
2021/08/17 02:57:07;;;;;;;4.17;3.43;;;17.20;99.90;;;;;;5055505;28;20477;-60
2021/08/17 02:59:34;;;;;;;10.00;3.80;;;17.20;99.90;;;;;;5055852;28;20540;-59
2021/08/17 03:02:01;;;;;;;6.03;5.37;;;17.20;99.90;;;;;;5055573;28;20527;-59
2021/08/17 03:04:28;;;;;;;8.73;3.90;;;17.10;99.90;;;;;;5055844;28;20888;-59
2021/08/17 03:06:55;;;;;;;6.33;3.53;;;17.10;99.90;;;;;;5055351;28;20462;-58
2021/08/17 03:09:23;;;;;;;6.73;3.27;;;17.20;99.90;;;;;;5055683;28;20474;-60
2021/08/17 03:11:50;;;;;;;6.57;3.10;;;17.10;99.90;;;;;;5055835;28;20470;-59
2021/08/17 03:14:17;;;;;;;5.67;2.97;;;17.10;99.90;;;;;;5055316;28;20504;-59
2021/08/17 03:16:43;;;;;;;3.77;3.37;;;17.10;99.90;;;;;;5055520;28;20509;-58
2021/08/17 03:19:10;;;;;;;7.83;3.40;;;17.10;99.90;;;;;;5054846;28;20484;-59
2021/08/17 03:21:36;;;;;;;6.33;4.63;;;17.10;99.90;;;;;;5055444;28;20532;-59
2021/08/17 03:24:03;;;;;;;6.50;3.50;;;17.10;99.90;;;;;;5054998;28;20501;-60
2021/08/17 03:26:31;;;;;;;7.27;4.17;;;17.10;99.90;;;;;;5055299;28;20458;-59
2021/08/17 03:28:58;;;;;;;7.03;4.70;;;17.10;99.90;;;;;;5053842;28;20487;-60
2021/08/17 03:31:25;;;;;;;7.80;3.93;;;17.10;99.90;;;;;;5055381;28;20523;-59
2021/08/17 03:33:52;;;;;;;9.17;6.10;;;17.20;99.90;;;;;;5055095;28;20470;-59
2021/08/17 03:36:18;;;;;;;5.30;3.60;;;17.20;99.90;;;;;;5054786;28;20534;-60
2021/08/17 03:38:45;;;;;;;3.50;3.20;;;17.30;99.90;;;;;;5054866;28;20976;-59
2021/08/17 03:41:12;;;;;;;6.53;4.13;;;17.30;99.90;;;;;;5054423;28;20520;-58
2021/08/17 03:43:40;;;;;;;9.70;5.80;;;17.30;99.90;;;;;;5054804;28;20537;-59
2021/08/17 03:46:06;;;;;;;9.10;3.93;;;17.30;99.90;;;;;;5054520;28;20861;-60
2021/08/17 03:48:34;;;;;;;4.50;3.77;;;17.30;99.90;;;;;;5054833;28;20469;-59
2021/08/17 03:51:00;;;;;;;7.30;4.23;;;17.40;99.90;;;;;;5054582;28;20529;-57
2021/08/17 03:53:27;;;;;;;5.10;4.07;;;17.40;99.90;;;;;;5054948;28;20840;-60
2021/08/17 03:55:54;;;;;;;11.90;9.93;;;17.40;99.90;;;;;;5054676;28;20969;-60
2021/08/17 03:58:20;;;;;;;6.57;4.20;;;17.40;99.90;;;;;;5054442;28;20475;-59
2021/08/17 04:00:48;;;;;;;6.90;3.97;;;17.40;99.90;;;;;;5054774;28;20852;-59
2021/08/17 04:03:15;;;;;;;6.40;4.00;;;17.40;99.90;;;;;;5054275;28;20463;-60
2021/08/17 04:05:41;;;;;;;8.87;6.93;;;17.40;99.90;;;;;;5054823;28;20474;-59
2021/08/17 04:08:08;;;;;;;5.97;4.23;;;17.50;99.90;;;;;;5054024;28;20957;-60
2021/08/17 04:10:35;;;;;;;6.23;4.30;;;17.50;99.90;;;;;;5054772;28;20842;-59
2021/08/17 04:13:01;;;;;;;7.10;5.60;;;17.40;99.90;;;;;;5054228;28;20545;-59
2021/08/17 04:15:28;;;;;;;5.80;4.67;;;17.50;99.90;;;;;;5054297;28;20969;-60
2021/08/17 04:17:56;;;;;;;9.70;7.00;;;17.50;99.90;;;;;;5054188;28;20475;-59
2021/08/17 04:20:23;;;;;;;6.37;4.37;;;17.50;99.90;;;;;;5053892;28;20517;-59
2021/08/17 04:22:49;;;;;;;6.73;6.03;;;17.50;99.90;;;;;;5054259;28;20470;-60
2021/08/17 04:25:16;;;;;;;7.60;4.70;;;17.60;99.90;;;;;;5053864;28;20470;-57
2021/08/17 04:27:42;;;;;;;6.53;4.43;;;17.60;99.90;;;;;;5053973;28;20540;-59
2021/08/17 04:30:10;;;;;;;6.60;4.20;;;17.60;99.90;;;;;;5053611;28;20471;-58
2021/08/17 04:32:37;;;;;;;7.13;5.17;;;17.60;99.90;;;;;;5054135;28;20525;-61
2021/08/17 04:35:06;;;;;;;6.50;3.80;;;17.60;99.90;;;;;;5053591;28;20859;-60
2021/08/17 04:37:33;;;;;;;4.17;3.50;;;17.60;99.90;;;;;;5054113;28;20477;-59
2021/08/17 04:39:59;;;;;;;5.40;3.57;;;17.60;99.90;;;;;;5053587;28;20991;-57
2021/08/17 04:42:26;;;;;;;5.70;3.50;;;17.60;99.90;;;;;;5053925;28;20467;-59
2021/08/17 04:44:52;;;;;;;7.70;4.70;;;17.60;99.90;;;;;;5053738;28;20475;-60
2021/08/17 04:47:19;;;;;;;5.40;4.40;;;17.60;99.90;;;;;;5053762;28;20589;-57
2021/08/17 04:49:45;;;;;;;3.67;3.10;;;17.60;99.90;;;;;;5053845;28;20475;-59
2021/08/17 04:52:13;;;;;;;13.50;8.30;;;17.70;99.90;;;;;;5053663;28;20531;-59
2021/08/17 04:54:40;;;;;;;8.30;3.77;;;17.60;99.90;;;;;;5053889;28;20467;-59
2021/08/17 04:57:06;;;;;;;7.30;5.80;;;17.60;99.90;;;;;;5053175;28;20541;-59
2021/08/17 04:59:33;;;;;;;5.73;4.90;;;17.60;99.90;;;;;;5053676;28;20475;-59
2021/08/17 05:02:00;;;;;;;8.63;4.70;;;17.70;99.90;;;;;;5053520;28;20486;-59
2021/08/17 05:04:26;;;;;;;8.87;4.20;;;17.70;99.90;;;;;;5053086;28;20463;-57
2021/08/17 05:06:53;;;;;;;9.53;3.53;;;17.80;99.90;;;;;;5053679;28;20505;-59
2021/08/17 05:09:22;;;;;;;7.63;4.87;;;17.80;99.90;;;;;;5052926;28;20537;-56
2021/08/17 05:11:49;;;;;;;9.80;6.30;;;17.90;99.90;;;;;;5053407;28;20463;-59
2021/08/17 05:14:15;;;;;;;7.50;4.67;;;17.90;99.90;;;;;;5052886;28;20463;-59
2021/08/17 05:16:42;;;;;;;10.43;4.87;;;17.90;99.90;;;;;;5053135;28;20459;-60
2021/08/17 05:19:08;;;;;;;7.40;4.20;;;17.90;99.90;;;;;;5052865;28;20525;-59
2021/08/17 05:21:35;;;;;;;6.07;4.30;;;17.90;99.90;;;;;;5053386;28;20463;-58
2021/08/17 05:24:02;;;;;;;6.17;4.30;;;17.90;99.90;;;;;;5052981;28;20463;-59
2021/08/17 05:26:30;;;;;;;8.37;4.77;;;17.90;99.90;;;;;;5053083;28;20463;-59
2021/08/17 05:28:56;;;;;;;12.20;4.37;;;17.90;99.90;;;;;;5053010;28;20463;-61
2021/08/17 05:31:23;;;;;;;9.40;3.37;;;17.90;99.90;;;;;;5052558;28;20467;-59
2021/08/17 05:33:49;;;;;;;9.00;5.97;;;17.90;99.90;;;;;;5053120;28;20521;-58
2021/08/17 05:36:17;;;;;;;6.70;4.60;;;17.80;99.90;;;;;;5052624;28;20470;-59
2021/08/17 05:38:43;;;;;;;6.13;4.80;;;17.90;99.90;;;;;;5052932;28;20517;-60
2021/08/17 05:41:10;;;;;;;12.30;5.50;;;17.90;99.90;;;;;;5052690;28;20506;-59
2021/08/17 05:43:38;;;;;;;8.37;5.43;;;17.90;99.90;;;;;;5052700;28;20856;-58
2021/08/17 05:46:05;;;;;;;9.03;4.93;;;18.00;99.90;;;;;;5052856;28;20463;-60
2021/08/17 05:48:32;;;;;;;7.27;4.73;;;18.00;99.90;;;;;;5052707;28;20471;-59
2021/08/17 05:50:58;;;;;;;9.53;4.70;;;18.00;99.90;;;;;;5052854;28;20459;-58
2021/08/17 05:53:26;;;;;;;6.13;5.10;;;18.00;99.90;;;;;;5051880;28;20802;-59
2021/08/17 05:55:52;;;;;;;14.73;5.63;;;18.00;99.90;;;;;;5052852;28;20832;-58
2021/08/17 05:58:19;;;;;;;12.83;4.43;;;18.00;99.90;;;;;;5051940;28;20463;-59
2021/08/17 06:00:47;;;;;;;4.50;4.03;;;18.00;99.90;;;;;;5052593;28;20532;-59
2021/08/17 06:03:13;;;;;;;6.47;3.90;;;18.00;99.90;;;;;;5052279;28;20475;-58
2021/08/17 06:05:40;;;;;;;9.23;5.30;;;18.10;99.90;;;;;;5052681;28;20961;-60
2021/08/17 06:08:07;;;;;;;8.00;4.83;;;18.10;99.90;;;;;;5052720;28;20533;-60
2021/08/17 06:10:33;;;;;;;7.87;4.10;;;18.10;99.90;;;;;;5052496;28;20548;-59
2021/08/17 06:13:00;;;;;;;8.00;4.27;;;18.10;99.90;;;;;;5052544;28;20467;-60
2021/08/17 06:15:27;;;;;;;8.17;4.57;;;18.20;99.90;;;;;;5052171;28;20475;-60
2021/08/17 06:18:01;;;;;;;5.73;4.07;;;18.20;99.90;;;;;;5051991;28;20474;-60
2021/08/17 06:20:28;;;;;;;7.93;4.83;;;18.10;99.90;;;;;;5051849;28;20820;-60
2021/08/17 06:22:55;;;;;;;11.30;4.70;;;18.10;99.90;;;;;;5052421;28;20463;-60
2021/08/17 06:25:22;;;;;;;9.20;5.00;;;18.10;99.90;;;;;;5051905;28;20482;-59
2021/08/17 06:27:48;;;;;;;5.73;2.97;;;18.20;99.90;;;;;;5052341;28;20467;-61
2021/08/17 06:30:15;;;;;;;9.33;5.47;;;18.30;99.90;;;;;;5051975;28;20467;-56
2021/08/17 06:32:42;;;;;;;8.43;4.13;;;18.30;99.90;;;;;;5052423;28;20459;-59
2021/08/17 06:35:10;;;;;;;8.03;5.23;;;18.30;99.90;;;;;;5052535;28;20524;-58
2021/08/17 06:37:37;;;;;;;10.10;5.20;;;18.40;99.90;;;;;;5052269;28;20992;-58
2021/08/17 06:40:04;;;;;;;7.83;3.80;;;18.40;99.90;;;;;;5052148;28;20467;-58
2021/08/17 06:42:31;;;;;;;10.65;5.50;;;18.50;99.90;;;;;;5051469;28;20501;-60
2021/08/17 06:44:57;;;;;;;6.97;4.47;;;18.50;99.90;;;;;;5052290;28;20627;-59
2021/08/17 06:47:24;;;;;;;6.70;5.47;;;18.60;99.90;;;;;;5051716;28;20475;-60
2021/08/17 06:49:51;;;;;;;9.17;6.30;;;18.60;99.90;;;;;;5052415;28;20471;-59
2021/08/17 06:52:19;;;;;;;9.67;6.87;;;18.60;99.90;;;;;;5051932;28;20467;-57
2021/08/17 06:54:45;;;;;;;9.97;4.73;;;18.60;99.90;;;;;;5052295;28;20616;-60
2021/08/17 06:57:12;;;;;;;9.10;4.93;;;18.70;99.90;;;;;;5052253;28;20471;-58
2021/08/17 06:59:38;;;;;;;9.40;4.93;;;18.60;99.90;;;;;;5051687;28;20529;-60
2021/08/17 07:02:05;;;;;;;7.73;5.33;;;18.60;99.90;;;;;;5052305;28;20524;-59
2021/08/17 07:04:31;;;;;;;7.90;4.07;;;18.60;99.90;;;;;;5052947;28;20474;-60
2021/08/17 07:06:58;;;;;;;7.57;3.87;;;18.60;99.90;;;;;;5055810;28;20475;-60
2021/08/17 07:09:26;;;;;;;4.13;3.30;;;18.60;99.90;;;;;;5055173;28;20543;-60
2021/08/17 07:11:52;;;;;;;5.00;4.37;;;18.60;99.90;;;;;;5055774;28;20507;-60
2021/08/17 07:14:19;;;;;;;8.93;4.73;;;18.60;99.90;;;;;;5055142;28;20882;-59
2021/08/17 07:16:46;;;;;;;7.13;4.27;;;18.60;99.90;;;;;;5055669;28;20525;-60
2021/08/17 07:19:12;;;;;;;8.33;4.87;;;18.60;99.90;;;;;;5055548;28;20817;-59
2021/08/17 07:21:39;;;;;;;6.70;4.73;;;18.60;99.90;;;;;;5054990;28;20564;-59
2021/08/17 07:24:06;;;;;;;8.27;3.70;;;18.70;99.90;;;;;;5055479;28;20471;-59
2021/08/17 07:26:33;;;;;;;9.63;3.50;;;18.80;99.90;;;;;;5054855;28;20475;-60
2021/08/17 07:29:00;;;;;;;12.47;4.07;;;18.80;99.90;;;;;;5055321;28;20471;-61
2021/08/17 07:31:27;;;;;;;7.40;3.37;;;18.80;99.90;;;;;;5054931;28;20448;-59
2021/08/17 07:33:53;;;;;;;7.03;2.70;;;18.90;99.90;;;;;;5055336;28;20467;-60
2021/08/17 07:36:20;;;;;;;5.97;3.30;;;19.00;99.90;;;;;;5054732;28;20475;-60
2021/08/17 07:38:46;;;;;;;8.40;3.20;;;18.90;99.90;;;;;;5055102;28;20467;-60
2021/08/17 07:41:13;;;;;;;7.00;3.23;;;19.00;99.70;;;;;;5055060;28;20965;-60
2021/08/17 07:43:41;;;;;;;4.60;3.40;;;19.00;99.80;;;;;;5054502;28;20528;-59
2021/08/17 07:46:08;;;;;;;5.43;3.00;;;19.00;99.80;;;;;;5047876;28;20483;-61
2021/08/17 07:48:34;;;;;;;12.57;3.37;;;19.00;99.90;;;;;;5044650;28;20478;-60
2021/08/17 07:51:01;;;;;;;6.90;4.50;;;19.00;99.80;;;;;;5050663;28;20521;-59
2021/08/17 07:53:27;;;;;;;8.77;4.10;;;19.10;99.90;;;;;;5052705;28;20868;-58
2021/08/17 07:55:55;;;;;;;6.77;4.10;;;19.10;99.90;;;;;;5034739;28;20472;-59
2021/08/17 07:58:22;;;;;;;6.80;4.00;;;19.10;99.90;;;;;;5034280;28;20480;-58
2021/08/17 08:00:50;;;;;;;5.93;4.53;;;19.10;99.90;;;;;;5051792;28;21189;-58
2021/08/17 08:03:16;;;;;;;7.13;4.67;;;19.10;99.90;;;;;;5053205;28;20463;-59
2021/08/17 08:05:43;;;;;;;6.80;3.53;;;19.10;99.90;;;;;;5054378;28;20462;-59
2021/08/17 08:08:10;;;;;;;3.70;2.70;;;19.10;99.90;;;;;;5054508;28;20463;-59
2021/08/17 08:10:36;;;;;;;9.77;4.73;;;19.10;99.90;;;;;;5054118;28;20533;-57
2021/08/17 08:13:03;;;;;;;5.90;4.50;;;19.10;99.90;;;;;;5054706;28;20856;-59
2021/08/17 08:15:29;;;;;;;7.80;4.33;;;19.10;99.90;;;;;;5053347;28;20463;-60
2021/08/17 08:17:58;;;;;;;8.80;4.20;;;19.10;99.90;;;;;;5054345;28;20472;-59
2021/08/17 08:20:25;;;;;;;4.47;3.50;;;19.00;99.90;;;;;;5054068;28;20618;-60
2021/08/17 08:22:52;;;;;;;5.03;4.30;;;19.00;99.90;;;;;;5054330;28;20536;-59
2021/08/17 08:25:19;;;;;;;6.10;4.37;;;19.00;99.90;;;;;;5053941;28;20529;-59
2021/08/17 08:27:46;;;;;;;6.13;3.60;;;19.00;99.90;;;;;;5054074;28;20528;-60
2021/08/17 08:30:13;;;;;;;9.80;3.67;;;19.00;99.90;;;;;;5054188;28;20524;-61
2021/08/17 08:32:40;;;;;;;6.27;3.40;;;18.90;99.90;;;;;;5053783;28;20517;-57
2021/08/17 08:35:10;;;;;;;10.00;6.07;;;18.90;99.90;;;;;;5054132;28;20467;-58
2021/08/17 08:37:37;;;;;;;6.30;4.80;;;18.90;99.90;;;;;;5053507;28;20476;-59
2021/08/17 08:40:06;;;;;;;6.10;3.90;;;18.90;99.90;;;;;;5054082;28;20521;-57
2021/08/17 08:42:32;;;;;;;8.90;3.63;;;19.00;99.90;;;;;;5046937;28;20536;-58
2021/08/17 08:44:59;;;;;;;5.00;3.27;;;19.10;99.90;;;;;;5040028;28;20556;-59
2021/08/17 08:47:26;;;;;;;6.43;3.37;;;19.10;99.90;;;;;;5053327;28;20529;-59
2021/08/17 08:49:53;;;;;;;5.53;3.50;;;19.10;99.90;;;;;;5052450;28;20521;-60
2021/08/17 08:52:22;;;;;;;5.93;3.80;;;19.10;99.90;;;;;;5053760;28;20463;-60
2021/08/17 08:54:49;;;;;;;5.80;3.50;;;19.10;99.80;;;;;;5053263;28;20999;-59
2021/08/17 08:57:15;;;;;;;5.67;3.73;;;19.10;99.70;;;;;;5053637;28;20530;-58
2021/08/17 08:59:42;;;;;;;5.83;4.23;;;19.10;99.80;;;;;;5052737;28;20475;-59
2021/08/17 09:02:10;;;;;;;3.77;3.40;;;19.10;99.80;;;;;;5053619;28;20467;-57
2021/08/17 09:04:38;;;;;;;5.07;2.83;;;19.10;99.80;;;;;;5052813;28;20472;-60
2021/08/17 09:07:05;;;;;;;4.33;3.10;;;19.00;99.60;;;;;;5053394;28;20463;-59
2021/08/17 09:09:34;;;;;;;5.77;3.40;;;19.00;99.70;;;;;;5052772;28;20471;-59
2021/08/17 09:12:01;;;;;;;4.27;2.60;;;19.00;99.90;;;;;;5053354;28;20471;-60
2021/08/17 09:14:29;;;;;;;6.07;3.20;;;18.90;99.90;;;;;;5052671;28;20472;-59
2021/08/17 09:16:58;;;;;;;6.00;4.90;;;19.00;99.90;;;;;;5048905;28;21279;-59
2021/08/17 09:19:31;;;;;;;8.40;3.70;;;19.00;99.90;;;;;;5052805;28;20505;-60
2021/08/17 09:21:59;;;;;;;5.57;2.73;;;19.10;99.80;;;;;;5052930;28;20517;-60
2021/08/17 09:24:28;;;;;;;6.60;3.50;;;19.10;99.80;;;;;;5040073;28;20821;-60
2021/08/17 09:26:58;;;;;;;3.63;3.10;;;19.20;99.80;;;;;;5052062;28;20542;-59
2021/08/17 09:29:32;;;;;;;11.00;5.00;;;19.30;99.90;;;;;;5052863;28;20483;-59
2021/08/17 09:32:00;;;;;;;9.20;4.17;;;19.20;99.80;;;;;;5052474;28;20463;-59
2021/08/17 09:34:34;;;;;;;9.53;3.47;;;19.30;99.60;;;;;;5053082;28;20521;-59
2021/08/17 09:37:07;;;;;;;6.73;3.60;;;19.30;99.60;;;;;;5052458;28;20455;-59
2021/08/17 09:39:39;;;;;;;6.37;3.60;;;19.30;99.50;;;;;;5052615;28;20476;-59
2021/08/17 09:42:13;;;;;;;7.67;4.60;;;19.40;99.30;;;;;;5043319;28;20460;-60
2021/08/17 09:44:40;;;;;;;6.97;4.47;;;19.30;99.20;;;;;;5052693;28;20860;-59
2021/08/17 09:47:08;;;;;;;8.60;4.80;;;19.40;98.90;;;;;;5052238;28;20451;-59
2021/08/17 09:49:35;;;;;;;8.10;4.83;;;19.40;99.00;;;;;;5048468;28;20546;-58
2021/08/17 09:52:10;;;;;;;5.07;4.30;;;19.30;98.90;;;;;;5048450;28;20478;-57
2021/08/17 09:54:39;;;;;;;10.43;5.20;;;19.30;98.70;;;;;;5052648;28;20474;-58
2021/08/17 09:57:06;;;;;;;6.93;3.83;;;19.40;98.50;;;;;;5052012;28;20459;-60
2021/08/17 09:59:36;;;;;;;9.47;3.50;;;19.40;98.60;;;;;;5052510;28;21000;-60
2021/08/17 10:02:04;;;;;;;6.63;2.90;;;19.40;98.40;;;;;;5052017;28;20579;-59
2021/08/17 10:04:31;;;;;;;9.23;4.70;;;19.30;98.70;;;;;;5052624;28;20464;-59
2021/08/17 10:07:00;;;;;;;4.20;3.30;;;19.30;98.90;;;;;;5052113;28;20852;-59
2021/08/17 10:09:28;;;;;;;5.80;3.50;;;19.30;99.00;;;;;;5052459;28;20534;-59
2021/08/17 10:11:56;;;;;;;5.97;3.40;;;19.30;99.00;;;;;;5051897;28;20885;-59
2021/08/17 10:14:23;;;;;;;12.30;3.73;;;19.30;99.30;;;;;;5052761;28;20497;-58
2021/08/17 10:16:51;;;;;;;9.60;3.70;;;19.30;98.80;;;;;;5038842;28;20848;-59
2021/08/17 10:19:20;;;;;;;5.43;3.67;;;19.30;98.70;;;;;;5051529;28;20471;-59
2021/08/17 10:21:48;;;;;;;9.80;4.00;;;19.40;98.40;;;;;;5052069;28;20467;-57
2021/08/17 10:24:30;;;;;;;5.97;3.60;;;19.30;98.30;;;;;;5044226;28;20460;-59
2021/08/17 10:27:20;;;;;;;9.77;4.17;;;19.30;98.10;;;;;;5051957;28;20463;-59
2021/08/17 10:29:59;;;;;;;6.03;3.20;;;19.40;97.90;;;;;;5051032;28;20532;-56
2021/08/17 10:32:50;;;;;;;5.83;3.77;;;19.50;97.60;;;;;;5052440;28;20532;-59
2021/08/17 10:35:51;;;;;;;12.10;3.70;;;19.50;97.50;;;;;;5051850;28;20482;-59
2021/08/17 10:38:39;;;;;;;10.43;4.10;;;19.50;97.50;;;;;;5032803;28;21217;-59
2021/08/17 10:41:08;;;;;;;6.13;4.07;;;19.50;97.50;;;;;;5055074;28;20482;-59
2021/08/17 10:44:09;;;;;;;7.73;3.47;;;19.60;97.00;;;;;;5055529;28;20546;-59
2021/08/17 10:46:44;;;;;;;4.03;3.27;;;19.60;96.80;;;;;;4994484;28;20785;-58
2021/08/17 10:49:46;;;;;;;6.80;3.70;;;19.70;96.80;;;;;;4993819;28;20484;-59
2021/08/17 10:52:27;;;;;;;6.07;2.77;;;19.70;96.70;;;;;;5027479;28;20929;-59
2021/08/17 10:55:20;;;;;;;4.63;2.50;;;19.70;96.80;;;;;;5056223;28;20867;-59
2021/08/17 10:57:54;;;;;;;4.20;2.70;;;19.80;96.70;;;;;;5055838;28;20466;-60
2021/08/17 11:00:51;;;;;;;7.73;2.77;;;19.80;96.70;;;;;;5042863;28;20501;-59
2021/08/17 11:03:40;;;;;;;3.57;2.03;;;19.70;96.90;;;;;;5054880;28;20470;-58
2021/08/17 11:06:08;;;;;;;6.03;2.60;;;19.70;96.10;;;;;;5055699;28;20525;-59
2021/08/17 11:08:37;;;;;;;5.40;2.53;;;19.70;96.00;;;;;;5055198;28;20467;-58
2021/08/17 11:11:05;;;;;;;5.27;2.50;;;19.70;96.20;;;;;;5055584;28;20467;-60
2021/08/17 11:13:32;;;;;;;5.30;3.27;;;19.70;96.20;;;;;;5055124;28;20525;-58
2021/08/17 11:16:16;;;;;;;4.97;2.60;;;19.70;96.20;;;;;;5055356;28;20474;-59
2021/08/17 11:18:49;;;;;;;6.63;2.90;;;19.70;96.20;;;;;;5055125;28;21292;-59
2021/08/17 11:21:31;;;;;;;4.03;2.90;;;19.70;97.10;;;;;;5055334;28;20527;-59
2021/08/17 11:24:23;;;;;;;3.37;2.77;;;19.60;97.80;;;;;;5055573;28;20524;-59
2021/08/17 11:26:54;;;;;;;4.67;2.63;;;19.50;98.40;;;;;;5040497;28;20474;-60
2021/08/17 11:29:30;;;;;;;3.10;2.60;;;19.50;98.80;;;;;;5055036;28;20973;-60
2021/08/17 11:31:58;;;;;;;5.50;2.50;;;19.50;98.90;;;;;;5054907;28;20467;-61
2021/08/17 11:34:27;;;;;;;7.13;3.20;;;19.30;99.10;;;;;;5055220;28;20521;-60
2021/08/17 11:36:58;;;;;;;9.40;3.03;;;19.30;99.60;;;;;;5054647;28;20467;-60
2021/08/17 11:39:27;;;;;;;6.50;3.87;;;19.20;99.30;;;;;;5054892;28;20471;-60
2021/08/17 11:41:54;;;;;;;5.57;3.37;;;19.10;99.70;;;;;;5052036;28;20467;-60
2021/08/17 11:44:21;;;;;;;6.03;3.23;;;19.10;99.50;;;;;;5043519;28;20520;-59
2021/08/17 11:46:49;;;;;;;6.70;3.53;;;19.10;99.60;;;;;;5054571;28;20463;-59
2021/08/17 11:49:27;;;;;;;6.93;2.90;;;19.10;99.70;;;;;;5053200;28;20475;-58
2021/08/17 11:52:09;;;;;;;5.13;2.97;;;19.00;99.90;;;;;;5051552;28;20836;-59
2021/08/17 11:54:45;;;;;;;4.33;2.57;;;19.00;99.90;;;;;;5054914;28;20467;-59
2021/08/17 11:57:12;;;;;;;5.93;3.27;;;19.00;99.90;;;;;;5042156;28;20533;-60
2021/08/17 11:59:41;;;;;;;6.03;3.27;;;19.00;99.90;;;;;;5054387;28;20475;-59
2021/08/17 12:02:08;;;;;;;6.90;3.50;;;19.10;99.90;;;;;;5053306;28;20466;-61
2021/08/17 12:04:35;;;;;;;10.70;3.70;;;19.20;99.90;;;;;;5054505;28;20517;-59
2021/08/17 12:07:14;;;;;;;6.37;2.93;;;19.30;99.40;;;;;;5054292;28;20498;-59
2021/08/17 12:09:42;;;;;;;5.40;2.87;;;19.40;98.90;;;;;;5054339;28;20467;-59
2021/08/17 12:12:11;;;;;;;9.47;3.67;;;19.40;98.80;;;;;;5053922;28;20592;-59
2021/08/17 12:14:38;;;;;;;6.93;3.53;;;19.50;98.70;;;;;;5054154;28;20464;-59
2021/08/17 12:17:06;;;;;;;6.20;2.90;;;19.60;98.50;;;;;;5054046;28;20552;-58
2021/08/17 12:19:34;;;;;;;4.67;2.53;;;19.60;98.50;;;;;;5054077;28;20875;-58
2021/08/17 12:22:01;;;;;;;6.33;3.10;;;19.70;98.60;;;;;;5053899;28;20520;-59
2021/08/17 12:24:32;;;;;;;4.63;2.93;;;19.80;98.30;;;;;;5054129;28;20542;-59
2021/08/17 12:27:01;;;;;;;8.60;3.40;;;19.90;98.60;;;;;;5053768;28;20474;-58
2021/08/17 12:29:38;;;;;;;8.57;4.30;;;19.90;98.60;;;;;;5053661;28;20502;-58
2021/08/17 12:32:16;;;;;;;4.00;3.40;;;19.90;99.10;;;;;;5053611;28;20984;-59
2021/08/17 12:34:44;;;;;;;5.40;3.40;;;19.90;99.10;;;;;;5053911;28;20976;-58
2021/08/17 12:37:26;;;;;;;6.93;3.60;;;19.90;98.90;;;;;;5053430;28;20542;-59
2021/08/17 12:39:54;;;;;;;6.00;2.97;;;19.90;99.20;;;;;;5053307;28;20471;-57
2021/08/17 12:42:21;;;;;;;5.33;2.80;;;19.90;98.70;;;;;;5053456;28;20533;-58
2021/08/17 12:44:49;;;;;;;6.50;3.40;;;19.90;99.10;;;;;;5053655;28;20471;-60
2021/08/17 12:47:18;;;;;;;7.40;3.50;;;20.00;99.20;;;;;;5053494;28;20485;-58
2021/08/17 12:49:49;;;;;;;6.93;2.87;;;20.00;99.00;;;;;;5048281;28;20519;-60
2021/08/17 12:52:30;;;;;;;5.70;2.93;;;20.00;99.30;;;;;;5040271;28;20463;-60